Time;durP1;ratioP1;P1;durP2;ratioP2;P2;SDS_P1;SDS_P2;PMS_P1;PMS_P2;Temp;Humidity;BMP_temperature;BMP_pressure;BME280_temperature;BME280_humidity;BME280_pressure;Samples;Min_cycle;Max_cycle;Signal;HPM_P1;HPM_P2
2022/05/13 00:00:15;;;;;;;14.70;6.90;;;16.40;99.90;;;;;;20998161;28;20037;-75
2022/05/13 00:10:16;;;;;;;16.45;8.02;;;16.50;99.90;;;;;;20997505;28;20047;-75
2022/05/13 00:20:17;;;;;;;18.87;10.23;;;16.40;99.90;;;;;;20996585;28;20119;-75
2022/05/13 00:30:18;;;;;;;14.90;9.27;;;16.10;99.90;;;;;;20994274;28;20063;-75
2022/05/13 00:40:21;;;;;;;17.03;8.83;;;16.00;99.90;;;;;;20994842;28;20032;-75
2022/05/13 00:50:24;;;;;;;16.48;9.32;;;16.20;99.90;;;;;;20994023;28;20517;-75
2022/05/13 01:00:25;;;;;;;15.82;9.20;;;16.00;99.90;;;;;;20991955;28;20042;-76
2022/05/13 01:10:26;;;;;;;12.30;7.90;;;16.00;99.90;;;;;;20992572;28;20036;-76
2022/05/13 01:20:29;;;;;;;;;;;16.20;99.90;;;;;;20992445;28;20021;-76
2022/05/13 01:30:30;;;;;;;13.68;8.50;;;16.20;99.90;;;;;;20991774;28;19916;-75
2022/05/13 01:40:31;;;;;;;14.27;8.77;;;16.20;99.90;;;;;;20991057;28;20025;-76
2022/05/13 01:50:32;;;;;;;12.40;8.53;;;16.00;99.90;;;;;;20990648;28;20040;-75
2022/05/13 02:00:33;;;;;;;17.57;7.47;;;15.90;99.90;;;;;;20989320;28;20115;-75
2022/05/13 02:10:34;;;;;;;9.87;6.90;;;15.60;99.90;;;;;;20990086;28;20059;-75
2022/05/13 02:20:36;;;;;;;11.60;7.53;;;15.50;99.90;;;;;;20989261;28;20032;-75
2022/05/13 02:30:37;;;;;;;10.00;5.55;;;15.60;99.90;;;;;;20989828;28;20036;-75
2022/05/13 02:50:57;;;;;;;11.00;6.10;;;15.60;99.90;;;;;;20978986;22;20041;-78
2022/05/13 03:00:57;;;;;;;8.27;6.50;;;15.60;99.90;;;;;;20919703;28;20041;-78
2022/05/13 03:10:58;;;;;;;8.83;5.90;;;15.70;99.90;;;;;;20927439;28;20087;-78
2022/05/13 03:20:59;;;;;;;10.30;7.17;;;15.80;99.90;;;;;;20933419;28;20434;-78
2022/05/13 03:31:00;;;;;;;8.20;6.20;;;15.80;99.90;;;;;;20932448;28;20029;-78
2022/05/13 03:41:01;;;;;;;7.87;6.10;;;15.90;99.90;;;;;;20913858;28;20391;-77
2022/05/13 03:51:02;;;;;;;11.10;7.97;;;15.80;99.90;;;;;;20916678;28;20107;-76
2022/05/13 04:01:03;;;;;;;15.35;8.60;;;15.80;99.90;;;;;;20913928;28;20132;-76
2022/05/13 04:11:04;;;;;;;12.73;8.00;;;15.60;99.90;;;;;;20906403;28;20064;-76
2022/05/13 04:21:10;;;;;;;20.47;12.87;;;15.70;99.90;;;;;;20921725;28;20082;-76
2022/05/13 04:31:12;;;;;;;14.27;8.98;;;15.70;99.90;;;;;;20914381;28;20044;-76
2022/05/13 04:51:34;;;;;;;15.75;8.75;;;15.90;99.90;;;;;;20912431;28;20041;-76
2022/05/13 05:01:35;;;;;;;14.52;6.75;;;16.00;99.90;;;;;;20910552;28;20372;-75
2022/05/13 05:11:36;;;;;;;9.40;6.70;;;16.00;99.90;;;;;;20910202;28;20081;-76
2022/05/13 05:21:37;;;;;;;15.40;7.43;;;16.10;99.90;;;;;;20910707;28;20116;-76
2022/05/13 05:31:38;;;;;;;14.23;9.13;;;16.30;99.90;;;;;;20911442;28;20052;-77
2022/05/13 05:41:39;;;;;;;16.67;10.93;;;16.30;99.90;;;;;;20918547;28;20051;-78
2022/05/13 05:51:40;;;;;;;18.83;12.17;;;16.20;99.90;;;;;;20918488;28;20041;-79
2022/05/13 06:01:41;;;;;;;21.40;13.00;;;16.00;99.90;;;;;;20917537;28;20135;-78
2022/05/13 06:11:42;;;;;;;20.87;14.30;;;16.00;99.90;;;;;;20927054;28;20029;-78
2022/05/13 06:21:42;;;;;;;24.53;14.83;;;15.90;99.90;;;;;;20920256;28;20040;-79
2022/05/13 06:31:44;;;;;;;22.67;13.93;;;15.90;99.90;;;;;;20915995;28;20025;-79
2022/05/13 06:41:45;;;;;;;23.27;13.53;;;16.00;99.90;;;;;;20919908;28;20039;-78
2022/05/13 06:51:46;;;;;;;;;;;16.00;99.90;;;;;;20929948;28;20089;-78
2022/05/13 07:01:47;;;;;;;23.70;13.87;;;16.00;99.90;;;;;;20930074;28;19913;-78
2022/05/13 07:11:47;;;;;;;22.53;13.23;;;16.00;99.90;;;;;;20930514;28;20060;-78
2022/05/13 07:21:48;;;;;;;20.27;12.33;;;16.20;99.90;;;;;;20934323;28;20036;-78
2022/05/13 07:31:49;;;;;;;17.97;10.47;;;16.60;99.90;;;;;;20928564;28;20029;-79
2022/05/13 07:41:50;;;;;;;13.40;9.53;;;16.50;99.90;;;;;;20929139;28;20028;-78
2022/05/13 07:51:51;;;;;;;16.10;10.20;;;16.50;99.90;;;;;;20929815;28;20060;-78
2022/05/13 08:01:53;;;;;;;17.50;10.33;;;16.30;99.90;;;;;;20931584;28;20036;-78
2022/05/13 08:11:53;;;;;;;15.27;9.80;;;16.30;99.90;;;;;;20928017;28;20021;-79
2022/05/13 08:21:54;;;;;;;13.60;9.20;;;16.60;99.90;;;;;;20913266;28;20048;-77
2022/05/13 08:31:55;;;;;;;12.23;8.10;;;16.70;99.90;;;;;;20925601;28;20124;-78
2022/05/13 08:42:04;;;;;;;16.93;9.03;;;16.80;99.90;;;;;;20925416;28;20119;-78
2022/05/13 09:03:14;;;;;;;14.30;6.05;;;16.90;99.90;;;;;;20826998;28;20526;-76
2022/05/13 09:13:29;;;;;;;10.82;6.30;;;16.90;99.90;;;;;;20827950;28;20033;-76
2022/05/13 09:23:30;;;;;;;11.20;6.50;;;17.00;99.90;;;;;;20827068;28;20033;-76
2022/05/13 09:33:38;;;;;;;11.10;5.78;;;17.30;99.90;;;;;;20825213;28;20044;-74
2022/05/13 09:43:43;;;;;;;13.73;5.72;;;17.50;99.90;;;;;;20825756;28;20416;-75
2022/05/13 09:53:59;;;;;;;8.30;4.78;;;17.80;99.90;;;;;;20825107;28;20499;-75
2022/05/13 10:04:13;;;;;;;8.52;4.40;;;18.80;99.90;;;;;;20824668;28;20033;-75
2022/05/13 10:14:28;;;;;;;7.70;4.20;;;19.80;99.90;;;;;;20825565;28;20029;-76
2022/05/13 10:24:52;;;;;;;16.50;4.35;;;19.20;99.90;;;;;;20839811;28;20515;-76
2022/05/13 10:34:55;;;;;;;7.20;4.85;;;19.90;99.90;;;;;;20840199;28;20095;-75
2022/05/13 10:45:17;;;;;;;9.75;4.60;;;20.50;99.90;;;;;;20839501;28;20037;-75
2022/05/13 10:55:36;;;;;;;9.00;4.00;;;19.80;99.90;;;;;;20838564;28;20030;-76
2022/05/13 11:06:03;;;;;;;11.57;4.38;;;18.70;99.90;;;;;;20837990;28;20021;-76
2022/05/13 11:16:31;;;;;;;8.50;4.05;;;18.20;99.90;;;;;;20817486;28;20063;-75
2022/05/13 11:26:39;;;;;;;11.45;4.28;;;18.40;99.90;;;;;;20835679;28;20120;-75
2022/05/13 11:37:04;;;;;;;11.70;6.30;;;19.20;99.90;;;;;;20852652;28;20479;-75
2022/05/13 11:47:15;;;;;;;8.23;3.80;;;20.70;99.90;;;;;;20862892;28;20575;-75
2022/05/13 11:57:39;;;;;;;11.63;4.03;;;20.60;99.90;;;;;;20843507;28;20099;-75
2022/05/13 12:07:55;;;;;;;7.10;4.13;;;20.40;99.90;;;;;;20847385;28;20291;-75
2022/05/13 12:18:05;;;;;;;10.07;5.40;;;21.00;99.90;;;;;;20834461;28;20033;-75
2022/05/13 12:28:24;;;;;;;6.32;3.78;;;21.10;99.90;;;;;;20866363;28;20585;-75
2022/05/13 12:38:25;;;;;;;12.13;4.40;;;21.70;99.90;;;;;;20809076;28;20033;-75
2022/05/13 12:48:26;;;;;;;9.07;4.93;;;20.70;99.90;;;;;;20822280;28;20040;-75
2022/05/13 12:58:30;;;;;;;15.93;5.80;;;20.40;99.90;;;;;;20799398;28;20029;-76
2022/05/13 13:08:38;;;;;;;11.45;3.75;;;21.40;99.90;;;;;;20813779;28;20033;-75
2022/05/13 13:18:39;;;;;;;6.28;3.58;;;20.80;99.90;;;;;;20804768;28;20455;-76
2022/05/13 13:28:43;;;;;;;6.80;3.53;;;20.80;99.90;;;;;;20805741;28;20041;-76
2022/05/13 13:38:51;;;;;;;14.35;4.57;;;20.90;99.90;;;;;;20814829;28;20500;-75
2022/05/13 13:48:56;;;;;;;8.77;4.50;;;21.30;99.90;;;;;;20823762;28;20026;-75
2022/05/13 13:59:18;;;;;;;10.55;4.00;;;22.10;99.90;;;;;;20825131;28;20060;-75
2022/05/13 14:09:29;;;;;;;7.63;2.97;;;21.60;99.90;;;;;;20825249;28;20030;-76
2022/05/13 14:19:36;;;;;;;9.88;3.85;;;22.60;99.90;;;;;;20824813;28;20091;-75
2022/05/13 14:29:38;;;;;;;7.53;3.17;;;21.90;99.90;;;;;;20856512;28;20034;-76
2022/05/13 14:39:50;;;;;;;5.72;2.72;;;21.30;99.90;;;;;;20824210;28;20390;-76
2022/05/13 14:49:57;;;;;;;5.93;3.17;;;21.60;99.90;;;;;;20846789;22;20140;-76
2022/05/13 15:00:10;;;;;;;9.13;2.67;;;21.90;99.90;;;;;;20824002;28;20071;-76
2022/05/13 15:10:15;;;;;;;9.25;2.65;;;21.90;99.90;;;;;;20838294;28;20056;-76
2022/05/13 15:20:17;;;;;;;5.95;3.17;;;21.20;99.90;;;;;;20837731;28;20037;-76
2022/05/13 15:30:18;;;;;;;7.68;2.97;;;20.70;99.90;;;;;;20836159;28;20040;-76
2022/05/13 15:40:19;;;;;;;12.13;2.93;;;20.90;99.90;;;;;;20836160;28;20116;-77
2022/05/13 16:00:42;;;;;;;6.13;3.50;;;20.90;99.90;;;;;;20838303;28;20040;-77
2022/05/13 16:10:43;;;;;;;10.90;3.63;;;20.50;99.90;;;;;;20841728;28;20471;-77
2022/05/13 16:20:47;;;;;;;10.53;4.03;;;20.90;99.90;;;;;;20836063;28;20040;-77
2022/05/13 16:30:47;;;;;;;11.65;3.38;;;20.40;99.90;;;;;;20817475;28;20034;-77
2022/05/13 16:40:48;;;;;;;10.03;3.30;;;20.50;99.90;;;;;;20761157;28;20060;-77
2022/05/13 16:50:49;;;;;;;7.27;3.33;;;20.90;99.90;;;;;;20752790;28;20034;-77
2022/05/13 17:00:51;;;;;;;5.35;3.60;;;20.40;99.90;;;;;;20786938;28;20033;-77
2022/05/13 17:21:11;;;;;;;11.35;3.90;;;20.20;99.90;;;;;;20831522;28;20128;-77
2022/05/13 17:31:12;;;;;;;;;;;19.90;99.90;;;;;;20834734;28;20058;-77
2022/05/13 17:41:13;;;;;;;10.87;3.40;;;19.80;99.90;;;;;;20821471;28;19916;-76
2022/05/13 17:51:14;;;;;;;7.07;3.30;;;19.60;99.90;;;;;;20823648;28;20048;-76
2022/05/13 18:01:15;;;;;;;;;;;19.60;99.90;;;;;;20824417;28;20044;-77
2022/05/13 18:11:17;;;;;;;7.78;3.15;;;19.50;99.90;;;;;;20822318;28;19913;-77
2022/05/13 18:21:20;;;;;;;7.50;3.20;;;19.30;99.90;;;;;;20812043;28;20068;-75
2022/05/13 18:31:22;;;;;;;5.75;2.85;;;19.10;99.90;;;;;;20805807;28;20053;-75
2022/05/13 18:51:43;;;;;;;7.00;3.45;;;18.20;99.90;;;;;;20826607;28;20071;-75
2022/05/13 19:01:44;;;;;;;11.05;3.92;;;17.50;99.90;;;;;;20841103;28;20365;-75
2022/05/13 19:11:45;;;;;;;8.53;3.77;;;17.50;99.90;;;;;;20846360;28;20021;-76
2022/05/13 19:21:46;;;;;;;5.32;3.35;;;17.20;99.90;;;;;;20841777;28;20040;-77
2022/05/13 19:31:47;;;;;;;4.70;2.93;;;17.00;99.90;;;;;;20836358;28;20686;-77
2022/05/13 19:41:48;;;;;;;7.00;3.67;;;16.50;99.90;;;;;;20846827;28;20026;-76
2022/05/13 19:51:49;;;;;;;9.00;3.47;;;16.30;99.90;;;;;;20841380;28;20119;-76
2022/05/13 20:01:50;;;;;;;;;;;16.30;99.90;;;;;;20829774;28;20400;-76
2022/05/13 20:11:51;;;;;;;7.82;4.05;;;16.40;99.90;;;;;;20831865;28;19909;-75
2022/05/13 20:32:19;;;;;;;7.40;3.88;;;15.50;99.90;;;;;;20815832;28;20046;-76
2022/05/13 20:42:20;;;;;;;5.57;4.03;;;15.30;99.90;;;;;;20830896;28;20029;-75
2022/05/13 20:52:21;;;;;;;10.83;4.87;;;14.90;99.90;;;;;;20842233;22;20050;-76
2022/05/13 21:02:22;;;;;;;10.13;4.30;;;14.60;99.90;;;;;;20828777;28;20108;-76
2022/05/13 21:12:23;;;;;;;5.28;4.10;;;14.60;99.90;;;;;;20810237;28;20091;-76
2022/05/13 21:22:24;;;;;;;10.40;3.80;;;14.60;99.90;;;;;;20827183;28;20025;-75
2022/05/13 21:42:44;;;;;;;8.27;4.10;;;14.00;99.90;;;;;;20825619;28;20108;-75
2022/05/13 21:52:45;;;;;;;16.43;4.63;;;13.80;99.90;;;;;;20825314;28;20541;-75
2022/05/13 22:02:49;;;;;;;9.83;4.27;;;13.60;99.90;;;;;;20825095;28;20033;-76
2022/05/13 22:12:50;;;;;;;9.35;4.72;;;13.50;99.90;;;;;;20830245;28;20034;-75
2022/05/13 22:22:52;;;;;;;9.77;4.50;;;13.70;99.90;;;;;;20840849;28;20065;-76
2022/05/13 22:32:53;;;;;;;9.50;5.00;;;13.20;99.90;;;;;;20820570;28;20534;-76
2022/05/13 22:42:54;;;;;;;5.77;3.93;;;13.10;99.90;;;;;;20837831;28;20401;-76
2022/05/13 22:52:55;;;;;;;9.57;4.73;;;13.30;99.90;;;;;;20837059;28;20304;-76
2022/05/13 23:02:56;;;;;;;13.53;4.97;;;13.20;99.90;;;;;;20838535;28;20053;-77
2022/05/13 23:12:58;;;;;;;8.63;4.63;;;13.40;99.90;;;;;;20820089;28;20038;-76
2022/05/13 23:22:59;;;;;;;;;;;13.40;99.90;;;;;;20837390;28;20109;-76
2022/05/13 23:33:00;;;;;;;8.80;4.40;;;13.50;99.90;;;;;;20836148;28;19956;-77
2022/05/13 23:43:01;;;;;;;6.27;4.03;;;13.50;99.90;;;;;;20835501;28;20425;-77
